createdAt,value
2023-07-24T00:00:00.157Z,99176.22
2023-07-24T00:02:27.259Z,99168.09
2023-07-24T00:04:54.080Z,99169.66
2023-07-24T00:07:20.858Z,99166.94
2023-07-24T00:09:47.614Z,99154.69
2023-07-24T00:12:14.498Z,99154.31
2023-07-24T00:14:41.209Z,99153.72
2023-07-24T00:17:08.194Z,99157.16
2023-07-24T00:19:34.972Z,99160.31
2023-07-24T00:22:01.787Z,99152.44
2023-07-24T00:24:28.557Z,99153.75
2023-07-24T00:26:55.428Z,99145.25
2023-07-24T00:29:22.214Z,99151.41
2023-07-24T00:31:48.937Z,99157.03
2023-07-24T00:34:15.760Z,99159.16
2023-07-24T00:36:42.508Z,99160.22
2023-07-24T00:39:09.200Z,99148.19
2023-07-24T00:41:35.955Z,99150.31
2023-07-24T00:44:02.719Z,99146.56
2023-07-24T00:46:33.895Z,99149.50
2023-07-24T00:49:02.185Z,99141.84
2023-07-24T00:51:31.416Z,99143.34
2023-07-24T00:53:59.190Z,99135.47
2023-07-24T00:56:25.937Z,99128.88
2023-07-24T00:58:56.803Z,99131.59
2023-07-24T01:01:23.699Z,99133.13
2023-07-24T01:03:51.115Z,99130.00
2023-07-24T01:06:17.854Z,99132.72
2023-07-24T01:08:44.597Z,99121.06
2023-07-24T01:11:17.371Z,99120.94
2023-07-24T01:13:46.319Z,99118.78
2023-07-24T01:16:19.815Z,99110.47
2023-07-24T01:18:46.902Z,99110.22
2023-07-24T01:21:15.049Z,99100.47
2023-07-24T01:24:07.671Z,99090.91
2023-07-24T01:26:34.443Z,99082.91
2023-07-24T01:29:01.207Z,99078.56
2023-07-24T01:31:28.329Z,99067.59
2023-07-24T01:33:55.108Z,99067.22
2023-07-24T01:36:21.986Z,99064.78
2023-07-24T01:38:50.788Z,99064.19
2023-07-24T01:41:18.004Z,99068.78
2023-07-24T01:43:44.769Z,99060.66
2023-07-24T01:46:11.724Z,99060.06
2023-07-24T01:48:38.491Z,99054.66
2023-07-24T01:51:05.281Z,99050.88
2023-07-24T01:53:32.059Z,99051.94
2023-07-24T01:55:59.762Z,99055.47
2023-07-24T01:58:26.560Z,99060.88
2023-07-24T02:00:56.577Z,99071.69
2023-07-24T02:03:23.407Z,99068.19
2023-07-24T02:05:51.880Z,99072.53
2023-07-24T02:08:18.904Z,99067.34
2023-07-24T02:10:49.824Z,99071.34
2023-07-24T02:13:16.563Z,99068.41
2023-07-24T02:15:49.198Z,99066.75
2023-07-24T02:18:16.021Z,99060.28
2023-07-24T02:20:42.813Z,99059.94
2023-07-24T02:23:10.074Z,99070.75
2023-07-24T02:25:37.030Z,99069.34
2023-07-24T02:28:03.821Z,99056.03
2023-07-24T02:30:30.777Z,99053.78
2023-07-24T02:32:58.235Z,99060.28
2023-07-24T02:35:25.126Z,99055.34
2023-07-24T02:37:51.847Z,99050.38
2023-07-24T02:40:18.646Z,99047.44
2023-07-24T02:42:45.408Z,99044.59
2023-07-24T02:45:13.032Z,99049.66
2023-07-24T02:47:39.817Z,99050.50
2023-07-24T02:50:06.945Z,99054.47
2023-07-24T02:52:33.725Z,99040.97
2023-07-24T02:55:00.538Z,99046.38
2023-07-24T02:57:27.278Z,99041.19
2023-07-24T02:59:54.181Z,99054.47
2023-07-24T03:02:21.104Z,99052.00
2023-07-24T03:04:47.855Z,99033.53
2023-07-24T03:07:14.627Z,99029.75
2023-07-24T03:09:41.447Z,99032.72
2023-07-24T03:12:08.342Z,99038.13
2023-07-24T03:14:35.047Z,99037.06
2023-07-24T03:17:03.438Z,99026.50
2023-07-24T03:19:30.544Z,99032.13
2023-07-24T03:21:57.272Z,99031.28
2023-07-24T03:24:24.097Z,99013.66
2023-07-24T03:26:50.934Z,99011.94
2023-07-24T03:29:17.660Z,99017.84
2023-07-24T03:31:44.471Z,99003.28
2023-07-24T03:34:11.256Z,99005.97
2023-07-24T03:36:42.285Z,99006.19
2023-07-24T03:39:12.813Z,99006.66
2023-07-24T03:41:40.294Z,98997.50
2023-07-24T03:44:07.016Z,98998.56
2023-07-24T03:46:34.140Z,98988.44
2023-07-24T03:49:00.978Z,99003.84
2023-07-24T03:51:28.055Z,99018.97
2023-07-24T03:53:55.245Z,99011.94
2023-07-24T03:56:22.035Z,99001.34
2023-07-24T03:58:48.834Z,98998.28
2023-07-24T04:01:15.697Z,99003.44
2023-07-24T04:03:42.445Z,99011.56
2023-07-24T04:06:09.204Z,99027.78
2023-07-24T04:08:35.947Z,99028.84
2023-07-24T04:11:02.810Z,99037.44
2023-07-24T04:13:29.798Z,99024.25
2023-07-24T04:15:58.547Z,99020.13
2023-07-24T04:18:25.317Z,99016.97
2023-07-24T04:20:52.114Z,99010.16
2023-07-24T04:23:18.908Z,99008.84
2023-07-24T04:25:45.710Z,99012.84
2023-07-24T04:28:12.550Z,99002.63
2023-07-24T04:30:39.579Z,98991.59
2023-07-24T04:33:06.541Z,98992.41
2023-07-24T04:35:33.405Z,98991.34
2023-07-24T04:38:00.103Z,98986.53
2023-07-24T04:40:26.876Z,98992.03
2023-07-24T04:42:53.765Z,98987.22
2023-07-24T04:45:23.759Z,98987.13
2023-07-24T04:47:51.082Z,98986.28
2023-07-24T04:50:17.904Z,98984.50
2023-07-24T04:52:44.860Z,98983.56
2023-07-24T04:55:11.868Z,98982.75
2023-07-24T04:57:38.666Z,98977.81
2023-07-24T05:00:06.286Z,98969.91
2023-07-24T05:02:32.989Z,98971.81
2023-07-24T05:04:59.739Z,98960.38
2023-07-24T05:07:26.703Z,98956.03
2023-07-24T05:09:53.442Z,98957.06
2023-07-24T05:12:20.399Z,98952.28
2023-07-24T05:14:47.084Z,98952.28
2023-07-24T05:17:13.910Z,98947.91
2023-07-24T05:19:40.745Z,98945.19
2023-07-24T05:22:07.507Z,98940.84
2023-07-24T05:24:34.565Z,98932.72
2023-07-24T05:27:01.385Z,98923.78
2023-07-24T05:29:28.113Z,98931.69
2023-07-24T05:31:55.140Z,98935.69
2023-07-24T05:34:22.194Z,98939.19
2023-07-24T05:36:48.948Z,98940.00
2023-07-24T05:39:15.723Z,98952.13
2023-07-24T05:41:42.508Z,98961.06
2023-07-24T05:44:09.322Z,98960.44
2023-07-24T05:46:36.132Z,98962.13
2023-07-24T05:49:03.001Z,98975.03
2023-07-24T05:51:29.854Z,98981.72
2023-07-24T05:53:56.613Z,98990.44
2023-07-24T05:56:23.414Z,98991.72
2023-07-24T05:58:50.926Z,98993.63
2023-07-24T06:01:17.689Z,98989.25
2023-07-24T06:03:44.620Z,99000.31
2023-07-24T06:06:11.446Z,98997.59
2023-07-24T06:08:38.176Z,99001.13
2023-07-24T06:11:04.935Z,99003.59
2023-07-24T06:13:31.686Z,98992.19
2023-07-24T06:15:58.552Z,98983.25
2023-07-24T06:18:25.408Z,98986.53
2023-07-24T06:20:55.630Z,98985.50
2023-07-24T06:23:22.442Z,98980.91
2023-07-24T06:25:49.285Z,98985.03
2023-07-24T06:28:16.068Z,98973.41
2023-07-24T06:30:43.012Z,98976.09
2023-07-24T06:33:09.777Z,98982.94
2023-07-24T06:35:36.793Z,98973.41
2023-07-24T06:38:03.576Z,98969.41
2023-07-24T06:40:30.339Z,98977.28
2023-07-24T06:42:57.083Z,98974.56
2023-07-24T06:45:23.929Z,98975.38
2023-07-24T06:47:50.729Z,98982.03
2023-07-24T06:50:17.435Z,98983.66
2023-07-24T06:52:44.140Z,98984.84
2023-07-24T06:55:10.956Z,98984.03
2023-07-24T06:57:37.654Z,98975.44
2023-07-24T07:00:04.568Z,98973.09
2023-07-24T07:02:32.305Z,98966.16
2023-07-24T07:04:59.118Z,98953.00
2023-07-24T07:07:25.956Z,98944.66
2023-07-24T07:09:52.704Z,98955.38
2023-07-24T07:12:22.024Z,98948.66
2023-07-24T07:14:49.036Z,98948.19
2023-07-24T07:17:15.862Z,98947.13
2023-07-24T07:19:42.626Z,98943.94
2023-07-24T07:22:09.437Z,98938.91
2023-07-24T07:24:36.229Z,98937.59
2023-07-24T07:27:02.985Z,98951.00
2023-07-24T07:29:29.689Z,98953.00
2023-07-24T07:31:56.415Z,98956.88
2023-07-24T07:34:23.198Z,98952.28
2023-07-24T07:36:50.012Z,98961.81
2023-07-24T07:39:16.796Z,98971.59
2023-07-24T07:41:43.569Z,98968.06
2023-07-24T07:44:10.297Z,98970.31
2023-07-24T07:46:37.056Z,98968.66
2023-07-24T07:49:03.828Z,98972.66
2023-07-24T07:51:30.757Z,98961.47
2023-07-24T07:53:57.515Z,98974.19
2023-07-24T07:56:24.258Z,98980.06
2023-07-24T07:58:51.058Z,98982.19
2023-07-24T08:01:17.994Z,98990.06
2023-07-24T08:03:44.887Z,98986.31
2023-07-24T08:06:11.672Z,98998.78
2023-07-24T08:08:38.453Z,98990.88
2023-07-24T08:11:08.582Z,99006.91
2023-07-24T08:13:35.802Z,99030.91
2023-07-24T08:16:04.217Z,99020.78
2023-07-24T08:18:31.747Z,99031.84
2023-07-24T08:20:58.602Z,99017.09
2023-07-24T08:23:25.345Z,99038.63
2023-07-24T08:25:53.841Z,99045.94
2023-07-24T08:28:21.080Z,99025.22
2023-07-24T08:30:56.685Z,99026.88
2023-07-24T08:33:23.570Z,99018.16
2023-07-24T08:36:00.460Z,99003.47
2023-07-24T08:38:27.681Z,98989.25
2023-07-24T08:41:08.917Z,98998.41
2023-07-24T08:43:36.975Z,98991.00
2023-07-24T08:46:04.927Z,98989.72
2023-07-24T08:48:50.117Z,98986.06
2023-07-24T08:51:17.440Z,98980.28
2023-07-24T08:53:44.978Z,98979.22
2023-07-24T08:56:15.867Z,98985.50
2023-07-24T08:58:43.022Z,98975.72
2023-07-24T09:01:10.235Z,98964.88
2023-07-24T09:03:37.354Z,98949.47
2023-07-24T09:06:13.621Z,98964.66
2023-07-24T09:08:44.546Z,98944.06
2023-07-24T09:11:12.273Z,98950.06
2023-07-24T09:13:43.206Z,98947.13
2023-07-24T09:16:10.868Z,98956.19
2023-07-24T09:18:42.171Z,98943.00
2023-07-24T09:21:09.731Z,98935.56
2023-07-24T09:23:36.565Z,98932.75
2023-07-24T09:26:07.401Z,98932.84
2023-07-24T09:28:35.025Z,98935.47
2023-07-24T09:31:02.085Z,98932.50
2023-07-24T09:33:47.428Z,98932.28
2023-07-24T09:36:14.314Z,98927.41
2023-07-24T09:38:41.849Z,98918.91
2023-07-24T09:41:08.864Z,98920.66
2023-07-24T09:43:40.542Z,98914.53
2023-07-24T09:46:08.902Z,98923.16
2023-07-24T09:48:41.626Z,98916.16
2023-07-24T09:51:13.239Z,98934.03
2023-07-24T09:53:44.790Z,98942.44
2023-07-24T09:56:11.817Z,98940.53
2023-07-24T09:58:39.802Z,98952.78
2023-07-24T10:01:08.729Z,98939.81
2023-07-24T10:03:47.697Z,98952.19
2023-07-24T10:06:16.381Z,98959.13
2023-07-24T10:08:43.833Z,98946.06
2023-07-24T10:11:14.689Z,98947.94
2023-07-24T10:13:42.176Z,98956.06
2023-07-24T10:16:09.259Z,98961.13
2023-07-24T10:18:42.481Z,98951.16
2023-07-24T10:21:10.415Z,98949.97
2023-07-24T10:23:39.027Z,98943.97
2023-07-24T10:26:06.728Z,98939.84
2023-07-24T10:28:42.359Z,98950.94
2023-07-24T10:31:23.919Z,98947.78
2023-07-24T10:33:52.219Z,98935.63
2023-07-24T10:36:20.788Z,98944.56
2023-07-24T10:38:48.508Z,98947.78
2023-07-24T10:41:15.600Z,98943.16
2023-07-24T10:43:48.841Z,98943.66
2023-07-24T10:46:18.331Z,98937.19
2023-07-24T10:48:50.191Z,98937.91
2023-07-24T10:51:17.110Z,98937.91
2023-07-24T10:53:46.964Z,98936.25
2023-07-24T10:56:13.757Z,98938.13
2023-07-24T10:58:40.540Z,98934.03
2023-07-24T11:01:08.401Z,98939.69
2023-07-24T11:03:42.785Z,98947.44
2023-07-24T11:06:17.061Z,98952.28
2023-07-24T11:08:53.153Z,98946.03
2023-07-24T11:11:19.908Z,98945.00
2023-07-24T11:13:46.622Z,98942.03
2023-07-24T11:16:13.464Z,98941.81
2023-07-24T11:18:53.856Z,98937.69
2023-07-24T11:21:26.201Z,98933.44
2023-07-24T11:23:56.980Z,98932.63
2023-07-24T11:26:24.977Z,98938.41
2023-07-24T11:28:52.610Z,98922.38
2023-07-24T11:31:22.636Z,98913.75
2023-07-24T11:33:53.484Z,98903.19
2023-07-24T11:36:20.330Z,98897.28
2023-07-24T11:38:47.559Z,98891.97
2023-07-24T11:41:15.241Z,98888.53
2023-07-24T11:43:49.897Z,98883.69
2023-07-24T11:46:43.146Z,98886.66
2023-07-24T11:49:09.916Z,98892.47
2023-07-24T11:51:38.174Z,98900.88
2023-07-24T11:54:08.235Z,98896.03
2023-07-24T11:56:35.052Z,98905.81
2023-07-24T11:59:14.663Z,98891.19
2023-07-24T12:01:42.115Z,98885.72
2023-07-24T12:04:08.965Z,98888.03
2023-07-24T12:06:36.865Z,98887.16
2023-07-24T12:09:05.855Z,98882.66
2023-07-24T12:11:33.507Z,98883.34
2023-07-24T12:14:00.351Z,98871.28
2023-07-24T12:16:27.134Z,98867.00
2023-07-24T12:18:53.908Z,98859.22
2023-07-24T12:21:20.609Z,98863.03
2023-07-24T12:23:47.359Z,98867.50
2023-07-24T12:26:14.161Z,98865.41
2023-07-24T12:28:40.885Z,98859.75
2023-07-24T12:31:07.851Z,98851.84
2023-07-24T12:33:34.717Z,98844.50
2023-07-24T12:36:02.721Z,98837.91
2023-07-24T12:38:29.583Z,98848.69
2023-07-24T12:40:56.347Z,98841.63
2023-07-24T12:43:23.052Z,98845.16
2023-07-24T12:45:49.814Z,98833.97
2023-07-24T12:48:18.557Z,98837.50
2023-07-24T12:50:45.302Z,98841.63
2023-07-24T12:53:13.055Z,98838.06
2023-07-24T12:55:43.684Z,98833.81
2023-07-24T12:58:10.447Z,98829.03
2023-07-24T13:00:37.178Z,98822.59
2023-07-24T13:03:04.185Z,98813.72
2023-07-24T13:05:31.963Z,98803.38
2023-07-24T13:07:58.828Z,98812.09
2023-07-24T13:10:25.732Z,98808.53
2023-07-24T13:12:52.474Z,98802.88
2023-07-24T13:15:19.289Z,98797.22
2023-07-24T13:17:46.036Z,98792.59
2023-07-24T13:20:12.970Z,98796.94
2023-07-24T13:22:39.738Z,98780.94
2023-07-24T13:25:07.584Z,98783.72
2023-07-24T13:27:34.373Z,98772.03
2023-07-24T13:30:01.105Z,98773.97
2023-07-24T13:32:27.825Z,98772.66
2023-07-24T13:34:54.646Z,98758.34
2023-07-24T13:37:22.516Z,98748.81
2023-07-24T13:39:49.289Z,98750.22
2023-07-24T13:42:16.016Z,98740.44
2023-07-24T13:44:42.744Z,98743.97
2023-07-24T13:47:09.460Z,98738.84
2023-07-24T13:49:36.198Z,98725.78
2023-07-24T13:52:02.950Z,98712.53
2023-07-24T13:54:29.677Z,98716.91
2023-07-24T13:56:56.483Z,98713.38
2023-07-24T13:59:23.348Z,98709.91
2023-07-24T14:01:50.272Z,98707.50
2023-07-24T14:04:17.117Z,98696.34
2023-07-24T14:06:43.878Z,98688.53
2023-07-24T14:09:12.915Z,98690.72
2023-07-24T14:11:39.629Z,98686.09
2023-07-24T14:14:06.449Z,98688.81
2023-07-24T14:16:33.336Z,98685.56
2023-07-24T14:19:00.149Z,98695.09
2023-07-24T14:21:26.957Z,98691.34
2023-07-24T14:23:53.779Z,98691.09
2023-07-24T14:26:20.637Z,98684.88
2023-07-24T14:28:47.450Z,98687.06
2023-07-24T14:31:14.230Z,98685.97
2023-07-24T14:33:41.151Z,98675.16
2023-07-24T14:36:08.126Z,98677.94
2023-07-24T14:38:34.898Z,98678.22
2023-07-24T14:41:01.687Z,98681.47
2023-07-24T14:43:28.729Z,98697.00
2023-07-24T14:45:55.617Z,98690.16
2023-07-24T14:48:22.598Z,98690.13
2023-07-24T14:50:50.497Z,98688.97
2023-07-24T14:53:17.256Z,98675.13
2023-07-24T14:55:44.280Z,98672.34
2023-07-24T14:58:11.100Z,98676.09
2023-07-24T15:00:37.890Z,98676.84
2023-07-24T15:03:04.761Z,98675.69
2023-07-24T15:05:31.649Z,98676.13
2023-07-24T15:07:58.581Z,98663.91
2023-07-24T15:10:25.275Z,98665.97
2023-07-24T15:12:52.166Z,98674.88
2023-07-24T15:15:18.924Z,98687.56
2023-07-24T15:17:45.761Z,98711.66
2023-07-24T15:20:14.323Z,98735.75
2023-07-24T15:22:41.597Z,98754.06
2023-07-24T15:25:08.703Z,98798.47
2023-07-24T15:27:35.594Z,98839.91
2023-07-24T15:30:02.412Z,98815.38
2023-07-24T15:32:29.718Z,98824.63
2023-07-24T15:34:56.697Z,98833.72
2023-07-24T15:37:23.453Z,98835.88
2023-07-24T15:39:50.275Z,98833.06
2023-07-24T15:42:17.059Z,98839.78
2023-07-24T15:44:43.860Z,98815.88
2023-07-24T15:47:10.787Z,98799.88
2023-07-24T15:49:37.640Z,98787.41
2023-07-24T15:52:04.889Z,98801.78
2023-07-24T15:54:31.783Z,98800.38
2023-07-24T15:56:58.509Z,98809.31
2023-07-24T15:59:26.376Z,98794.69
2023-07-24T16:01:53.283Z,98793.66
2023-07-24T16:04:22.545Z,98793.66
2023-07-24T16:06:49.453Z,98798.59
2023-07-24T16:09:16.288Z,98790.53
2023-07-24T16:11:44.870Z,98785.44
2023-07-24T16:14:13.770Z,98786.63
2023-07-24T16:16:40.556Z,98781.19
2023-07-24T16:19:17.313Z,98783.09
2023-07-24T16:21:45.618Z,98772.34
2023-07-24T16:24:12.799Z,98765.25
2023-07-24T16:26:40.039Z,98762.31
2023-07-24T16:29:07.088Z,98759.13
2023-07-24T16:31:36.149Z,98762.63
2023-07-24T16:34:03.677Z,98749.09
2023-07-24T16:36:36.415Z,98751.00
2023-07-24T16:39:05.233Z,98760.75
2023-07-24T16:41:33.331Z,98760.19
2023-07-24T16:44:02.063Z,98756.91
2023-07-24T16:46:30.576Z,98740.06
2023-07-24T16:48:57.312Z,98744.09
2023-07-24T16:51:24.052Z,98750.09
2023-07-24T16:53:50.789Z,98750.66
2023-07-24T16:56:17.684Z,98743.34
2023-07-24T16:58:44.762Z,98743.09
2023-07-24T17:01:11.693Z,98749.34
2023-07-24T17:03:38.493Z,98760.75
2023-07-24T17:06:05.327Z,98753.38
2023-07-24T17:08:32.404Z,98755.25
2023-07-24T17:10:59.268Z,98763.94
2023-07-24T17:13:26.297Z,98757.50
2023-07-24T17:15:53.129Z,98760.19
2023-07-24T17:18:19.947Z,98761.59
2023-07-24T17:20:50.221Z,98763.47
2023-07-24T17:23:17.009Z,98769.38
2023-07-24T17:25:44.186Z,98765.03
2023-07-24T17:28:11.065Z,98761.97
2023-07-24T17:30:38.240Z,98755.16
2023-07-24T17:33:05.072Z,98768.16
2023-07-24T17:35:31.943Z,98762.97
2023-07-24T17:37:58.747Z,98766.75
2023-07-24T17:40:25.699Z,98769.13
2023-07-24T17:42:52.583Z,98768.78
2023-07-24T17:45:19.639Z,98778.81
2023-07-24T17:47:46.553Z,98777.41
2023-07-24T17:50:13.342Z,98777.06
2023-07-24T17:52:40.045Z,98791.66
2023-07-24T17:55:07.024Z,98788.63
2023-07-24T17:57:34.195Z,98801.34
2023-07-24T18:00:01.036Z,98792.63
2023-07-24T18:02:28.015Z,98804.31
2023-07-24T18:04:54.797Z,98799.59
2023-07-24T18:07:21.529Z,98798.78
2023-07-24T18:09:48.302Z,98815.50
2023-07-24T18:12:15.570Z,98807.84
2023-07-24T18:14:42.393Z,98809.41
2023-07-24T18:17:09.159Z,98813.50
2023-07-24T18:19:35.891Z,98807.41
2023-07-24T18:22:02.607Z,98813.88
2023-07-24T18:24:29.348Z,98819.78
2023-07-24T18:26:56.468Z,98817.53
2023-07-24T18:29:23.182Z,98819.44
2023-07-24T18:31:50.088Z,98814.50
2023-07-24T18:34:17.001Z,98819.56
2023-07-24T18:36:43.858Z,98828.75
2023-07-24T18:39:10.592Z,98830.88
2023-07-24T18:41:37.426Z,98830.28
2023-07-24T18:44:04.133Z,98830.19
2023-07-24T18:46:30.960Z,98827.97
2023-07-24T18:48:57.798Z,98841.72
2023-07-24T18:51:24.529Z,98839.50
2023-07-24T18:53:52.828Z,98844.56
2023-07-24T18:56:19.845Z,98845.59
2023-07-24T18:58:49.666Z,98854.78
2023-07-24T19:01:16.592Z,98861.50
2023-07-24T19:03:44.401Z,98861.72
2023-07-24T19:06:11.346Z,98861.38
2023-07-24T19:08:38.138Z,98860.78
2023-07-24T19:11:05.132Z,98872.91
2023-07-24T19:13:36.473Z,98874.44
2023-07-24T19:16:04.205Z,98871.59
2023-07-24T19:18:31.213Z,98878.78
2023-07-24T19:20:58.103Z,98889.25
2023-07-24T19:23:24.940Z,98892.41
2023-07-24T19:25:51.828Z,98884.19
2023-07-24T19:28:18.648Z,98890.63
2023-07-24T19:30:52.483Z,98894.88
2023-07-24T19:33:19.386Z,98893.81
2023-07-24T19:35:46.166Z,98897.78
2023-07-24T19:38:13.111Z,98898.88
2023-07-24T19:40:40.354Z,98899.91
2023-07-24T19:43:07.120Z,98894.16
2023-07-24T19:45:39.352Z,98897.31
2023-07-24T19:48:06.530Z,98899.19
2023-07-24T19:50:33.359Z,98895.66
2023-07-24T19:53:00.136Z,98895.66
2023-07-24T19:55:26.837Z,98897.56
2023-07-24T19:57:53.598Z,98885.53
2023-07-24T20:00:20.706Z,98894.50
2023-07-24T20:02:48.072Z,98887.69
2023-07-24T20:05:14.942Z,98885.78
2023-07-24T20:07:41.684Z,98878.72
2023-07-24T20:10:08.648Z,98868.97
2023-07-24T20:12:35.494Z,98869.19
2023-07-24T20:15:02.596Z,98865.91
2023-07-24T20:17:29.436Z,98875.06
2023-07-24T20:19:56.141Z,98875.28
2023-07-24T20:22:22.879Z,98880.94
2023-07-24T20:24:49.705Z,98881.78
2023-07-24T20:27:16.518Z,98894.09
2023-07-24T20:29:43.283Z,98909.47
2023-07-24T20:32:10.215Z,98913.47
2023-07-24T20:34:37.079Z,98910.16
2023-07-24T20:37:03.988Z,98906.44
2023-07-24T20:39:30.799Z,98915.56
2023-07-24T20:41:57.555Z,98911.22
2023-07-24T20:44:24.244Z,98910.41
2023-07-24T20:46:51.016Z,98909.59
2023-07-24T20:49:17.729Z,98911.22
2023-07-24T20:51:44.455Z,98906.06
2023-07-24T20:54:11.212Z,98912.31
2023-07-24T20:56:38.237Z,98922.50
2023-07-24T20:59:05.013Z,98918.59
2023-07-24T21:01:32.034Z,98930.22
2023-07-24T21:03:58.880Z,98929.28
2023-07-24T21:06:25.692Z,98933.50
2023-07-24T21:08:52.495Z,98936.44
2023-07-24T21:11:19.399Z,98937.50
2023-07-24T21:13:46.136Z,98938.31
2023-07-24T21:16:12.885Z,98936.66
2023-07-24T21:18:39.682Z,98939.34
2023-07-24T21:21:08.504Z,98947.44
2023-07-24T21:23:35.525Z,98943.13
2023-07-24T21:26:02.422Z,98945.81
2023-07-24T21:28:29.264Z,98950.84
2023-07-24T21:30:56.160Z,98948.38
2023-07-24T21:33:22.994Z,98940.72
2023-07-24T21:36:02.798Z,98947.69
2023-07-24T21:38:29.855Z,98944.53
2023-07-24T21:40:56.765Z,98941.03
2023-07-24T21:43:23.827Z,98943.94
2023-07-24T21:45:52.643Z,98953.91
2023-07-24T21:48:19.385Z,98948.97
2023-07-24T21:50:52.281Z,98945.44
2023-07-24T21:53:19.130Z,98947.31
2023-07-24T21:55:45.941Z,98962.47
2023-07-24T21:58:12.781Z,98956.22
2023-07-24T22:00:39.654Z,98958.94
2023-07-24T22:03:06.565Z,98951.91
2023-07-24T22:05:33.499Z,98952.09
2023-07-24T22:08:00.316Z,98952.34
2023-07-24T22:10:28.221Z,98958.78
2023-07-24T22:12:55.064Z,98947.41
2023-07-24T22:15:21.813Z,98943.88
2023-07-24T22:17:48.608Z,98945.53
2023-07-24T22:20:26.961Z,98942.09
2023-07-24T22:22:57.612Z,98964.28
2023-07-24T22:25:24.633Z,98952.06
2023-07-24T22:27:51.342Z,98954.53
2023-07-24T22:30:18.103Z,98958.50
2023-07-24T22:32:44.983Z,98958.28
2023-07-24T22:35:11.808Z,98962.03
2023-07-24T22:37:38.583Z,98962.03
2023-07-24T22:40:06.005Z,98966.03
2023-07-24T22:42:32.920Z,98967.06
2023-07-24T22:44:59.700Z,98963.53
2023-07-24T22:47:26.587Z,98955.66
2023-07-24T22:49:53.435Z,98945.31
2023-07-24T22:52:20.300Z,98945.75
2023-07-24T22:54:47.009Z,98948.47
2023-07-24T22:57:13.728Z,98947.84
2023-07-24T22:59:40.484Z,98944.56
2023-07-24T23:02:07.285Z,98936.91
2023-07-24T23:04:34.005Z,98945.63
2023-07-24T23:07:00.847Z,98943.38
2023-07-24T23:09:46.391Z,98947.19
2023-07-24T23:13:27.918Z,98943.88
2023-07-24T23:16:35.117Z,98950.47
2023-07-24T23:19:20.510Z,98951.06
2023-07-24T23:21:47.331Z,98944.84
2023-07-24T23:24:14.193Z,98951.47
2023-07-24T23:26:41.035Z,98944.66
2023-07-24T23:29:07.929Z,98930.56
2023-07-24T23:31:34.724Z,98940.06
2023-07-24T23:34:01.588Z,98943.59
2023-07-24T23:36:28.495Z,98932.78
2023-07-24T23:38:55.360Z,98936.31
2023-07-24T23:41:22.165Z,98927.59
2023-07-24T23:43:48.916Z,98922.66
2023-07-24T23:46:16.580Z,98924.34
2023-07-24T23:48:44.164Z,98912.13
2023-07-24T23:51:21.899Z,98910.53
2023-07-24T23:53:49.236Z,98909.25
2023-07-24T23:56:16.261Z,98918.47
2023-07-24T23:58:43.047Z,98915.78
